Latest Weather Observations for Cooktown

IDQ60801

Issued at 5:02 pm EST Monday 29 August 2016 (issued every 30 minutes, with the page automatically refreshed every 10 minutes)

About weather observations | Map of weather stations | Latest weather observations for QLD | Other Formats
Station Details ID: 031209 Name: COOKTOWN AIRPORT Lat: -15.45 Lon: 145.19 Height: 4.8 m
Data from the previous 72 hours. | See also: Recent months at Cooktown
Date/Time
EST
Temp
°C
App
Temp
°C
Dew
Point
°C
Rel
Hum
%
Delta-T
°C
Wind Press
QNH
hPa
Press
MSL
hPa
Rain since
9am
mm
Dir  Spd
km/h
Gust
km/h
Spd
kts
Gust
kts
29/05:00pm 24.7 21.8 16.0 58 5.3 SE 26 37 14 20 1016.9 - 0.0
29/04:30pm 25.2 21.7 15.6 55 5.8 SE 28 44 15 24 1016.8 - 0.0
29/04:00pm 25.0 22.8 16.9 60 5.0 SE 24 37 13 20 1016.7 - 0.0
29/03:30pm 26.3 24.1 16.8 56 5.9 SE 24 39 13 21 1016.7 - 0.0
29/03:00pm 25.2 23.3 16.6 59 5.3 SE 22 33 12 18 1016.7 1016.8 0.0
29/02:30pm 25.8 21.8 15.2 52 6.4 SE 30 41 16 22 1016.9 - 0.0
29/02:18pm 26.6 23.1 15.4 50 6.8 ESE 28 50 15 27 1016.9 - 0.0
29/02:00pm 26.8 23.3 15.4 49 6.9 ESE 28 44 15 24 1017.1 - 0.0
29/01:30pm 26.6 24.1 16.2 52 6.4 SE 24 39 13 21 1017.3 - 0.0
29/01:00pm 25.3 21.9 15.9 56 5.7 SE 28 43 15 23 1017.7 - 0.0
29/12:31pm 26.5 23.4 16.6 54 6.1 ESE 28 46 15 25 1017.9 - 0.0
29/12:30pm 26.3 22.7 16.2 53 6.2 ESE 30 46 16 25 1017.9 - 0.0
29/12:28pm 26.9 23.9 16.7 53 6.3 ESE 28 46 15 25 1018.0 - 0.0
29/12:00pm 26.2 23.1 15.7 52 6.4 ESE 26 37 14 20 1018.2 1018.3 0.0
29/11:30am 26.2 22.9 14.9 49 6.8 ESE 26 39 14 21 1018.8 - 0.0
29/11:00am 26.1 23.7 16.5 55 5.9 SE 24 35 13 19 1018.9 - 0.0
29/10:30am 25.6 22.2 15.7 54 6.0 SE 28 39 15 21 1019.2 - 0.0
29/10:00am 26.2 22.9 15.1 50 6.7 SE 26 39 14 21 1019.5 - 0.0
29/09:30am 25.2 23.9 16.8 59 5.2 SE 19 30 10 16 1019.5 - 0.0
29/09:00am 24.1 22.6 16.4 62 4.7 SE 19 32 10 17 1019.5 1019.5 0.0
29/08:30am 23.3 21.6 15.8 62 4.5 SE 19 30 10 16 1019.3 - 0.0
29/08:00am 22.6 20.8 15.6 64 4.2 SE 19 30 10 16 1018.9 - 0.0
29/07:30am 21.6 21.0 15.7 69 3.5 SE 13 20 7 11 1018.6 - 0.0
29/07:00am 20.5 19.4 15.2 71 3.1 SE 15 24 8 13 1018.2 - 0.0
29/06:30am 20.1 19.2 14.8 71 3.1 SE 13 19 7 10 1017.8 - 0.0
29/06:00am 20.1 19.2 14.8 71 3.1 SE 13 22 7 12 1017.4 1017.4 0.0
29/05:30am 20.1 18.7 14.6 70 3.2 SE 15 26 8 14 1017.1 - 0.0
29/05:00am 19.9 18.9 14.6 71 3.1 SE 13 20 7 11 1017.0 - 0.0
29/04:30am 20.0 19.0 14.5 70 3.2 SSE 13 20 7 11 1016.9 - 0.0
29/04:00am 19.9 18.8 14.4 70 3.2 SSE 13 19 7 10 1016.8 - 0.0
29/03:30am 19.9 18.8 14.4 70 3.2 SE 13 20 7 11 1017.0 - 0.0
29/03:00am 20.3 18.9 14.5 69 3.4 SE 15 24 8 13 1017.2 1017.3 0.0
29/02:30am 20.1 18.7 14.6 70 3.2 SSE 15 22 8 12 1017.5 - 0.0
29/02:00am 20.2 18.9 14.7 70 3.2 SE 15 20 8 11 1017.7 - 0.0
29/01:30am 21.4 18.6 13.2 59 4.7 SE 20 37 11 20 1017.9 - 0.0
29/01:00am 21.9 19.6 13.0 57 5.1 SE 17 28 9 15 1018.0 - 0.0
29/12:30am 21.8 19.6 13.2 58 4.9 ESE 17 28 9 15 1018.3 - 0.0
29/12:00am 21.7 18.6 12.3 55 5.3 SE 20 30 11 16 1018.6 1018.6 0.0
 
Date/Time
EST
Temp
°C
App
Temp
°C
Dew
Point
°C
Rel
Hum
%
Delta-T
°C
Wind Press
QNH
hPa
Press
MSL
hPa
Rain since
9am
mm
Dir  Spd
km/h
Gust
km/h
Spd
kts
Gust
kts
28/11:30pm 21.6 17.5 12.8 57 5.0 ESE 26 39 14 21 1018.7 - 0.0
28/11:18pm 22.0 17.2 12.9 56 5.2 ESE 30 48 16 26 1018.7 - 0.0
28/11:00pm 21.8 19.8 13.9 61 4.6 SE 17 26 9 14 1019.0 - 0.0
28/10:30pm 21.7 19.0 12.9 57 5.0 SE 19 33 10 18 1018.9 - 0.0
28/10:00pm 21.6 18.2 12.4 55 5.2 ESE 22 37 12 20 1018.9 - 0.0
28/09:30pm 21.5 18.8 12.9 58 4.9 ESE 19 35 10 19 1018.9 - 0.0
28/09:00pm 21.6 18.3 12.8 57 5.0 ESE 22 39 12 21 1018.9 1018.9 0.0
28/08:30pm 21.4 18.6 13.2 59 4.7 SE 20 33 11 18 1018.6 - 0.0
28/08:00pm 21.5 18.8 13.5 60 4.6 SE 20 33 11 18 1018.5 - 0.0
28/07:30pm 21.5 18.4 13.3 59 4.7 ESE 22 35 12 19 1018.2 - 0.0
28/07:00pm 21.5 18.8 13.5 60 4.6 SE 20 32 11 17 1017.9 - 0.0
28/06:30pm 21.7 19.4 14.1 62 4.4 SE 19 32 10 17 1017.5 - 0.0
28/06:00pm 22.2 19.1 13.5 57 5.0 SE 22 33 12 18 1017.2 1017.1 0.0
28/05:30pm 22.7 19.1 13.1 54 5.5 SE 24 41 13 22 1017.1 - 0.0
28/05:00pm 23.2 19.7 13.5 54 5.6 ESE 24 39 13 21 1016.9 - 0.0
28/04:30pm 24.0 20.2 13.7 52 6.0 ESE 26 41 14 22 1017.0 - 0.0
28/04:09pm 24.0 19.9 13.7 52 6.0 ESE 28 48 15 26 1016.8 - 0.0
28/04:00pm 24.0 19.5 13.9 53 5.9 ESE 30 41 16 22 1016.8 - 0.0
28/03:33pm 24.4 20.4 14.0 52 6.1 ESE 28 46 15 25 1016.7 - 0.0
28/03:30pm 24.4 20.7 14.0 52 6.1 ESE 26 43 14 23 1016.7 - 0.0
28/03:00pm 24.7 19.6 13.8 50 6.4 ESE 33 48 18 26 1016.8 1016.9 0.0
28/02:50pm 24.9 19.9 14.0 50 6.4 ESE 33 52 18 28 1016.7 - 0.0
28/02:30pm 25.2 20.8 14.2 50 6.5 ESE 30 43 16 23 1016.9 - 0.0
28/02:08pm 24.9 20.5 14.0 50 6.4 SE 30 50 16 27 1017.2 - 0.0
28/02:00pm 25.5 21.7 14.8 51 6.4 ESE 28 44 15 24 1017.3 - 0.0
28/01:36pm 25.0 21.1 15.4 55 5.8 ESE 30 50 16 27 1017.6 - 0.0
28/01:30pm 25.2 21.0 15.8 56 5.7 ESE 32 46 17 25 1017.6 - 0.0
28/01:04pm 24.7 21.2 15.6 57 5.5 ESE 28 46 15 25 1018.1 - 0.0
28/01:00pm 24.9 21.7 15.4 55 5.7 SE 26 46 14 25 1018.1 - 0.0
28/12:30pm 25.6 22.5 15.7 54 6.0 ESE 26 43 14 23 1018.7 - 0.0
28/12:06pm 24.9 20.4 15.4 55 5.7 ESE 33 54 18 29 1019.1 - 0.0
28/12:00pm 25.5 21.3 15.8 55 5.9 ESE 32 44 17 24 1019.2 1019.2 0.0
28/11:34am 25.6 22.3 16.1 55 5.8 ESE 28 50 15 27 1019.6 - 0.0
28/11:30am 25.8 23.1 16.5 56 5.7 ESE 26 44 14 24 1019.5 - 0.0
28/11:00am 25.5 22.2 16.0 55 5.8 ESE 28 41 15 22 1020.1 - 0.0
28/10:30am 25.4 22.2 16.2 56 5.6 ESE 28 46 15 25 1020.4 - 0.0
28/10:19am 24.3 20.6 15.1 56 5.5 ESE 28 46 15 25 1020.3 - 0.0
28/10:00am 24.3 20.7 15.3 57 5.4 SE 28 41 15 22 1020.4 - 0.0
28/09:30am 24.2 20.4 14.6 55 5.7 SE 28 39 15 21 1020.4 - 0.0
28/09:19am 24.1 20.3 14.6 55 5.6 SE 28 46 15 25 1020.4 - 0.0
28/09:00am 24.5 21.2 15.1 55 5.6 ESE 26 35 14 19 1020.3 1020.3 0.0
28/08:30am 23.8 20.7 14.5 56 5.5 ESE 24 39 13 21 1020.1 - 0.0
28/08:00am 23.3 20.7 14.9 59 5.0 SE 22 37 12 20 1019.9 - 0.0
28/07:30am 22.7 20.2 15.1 62 4.5 SE 22 35 12 19 1019.6 - 0.0
28/07:00am 22.4 19.8 15.0 63 4.4 SE 22 35 12 19 1019.1 - 0.0
28/06:30am 21.5 20.3 16.2 72 3.2 SE 17 30 9 16 1018.6 - 0.0
28/06:00am 21.2 20.5 16.4 74 2.9 SE 15 26 8 14 1018.3 1018.2 0.0
28/05:30am 21.4 20.7 16.3 72 3.1 SE 15 28 8 15 1017.9 - 0.0
28/05:00am 21.5 19.9 16.5 73 3.0 SE 20 37 11 20 1017.3 - 0.0
28/04:30am 21.5 20.5 16.7 74 2.9 SE 17 28 9 15 1016.9 - 0.0
28/04:00am 21.6 20.4 17.0 75 2.8 SE 19 33 10 18 1017.0 - 0.0
28/03:30am 21.5 20.7 17.1 76 2.7 SE 17 22 9 12 1017.0 - 0.0
28/03:00am 21.5 20.7 17.1 76 2.7 SE 17 30 9 16 1017.1 1017.1 0.0
28/02:30am 21.5 20.7 17.1 76 2.7 SE 17 28 9 15 1017.1 - 0.0
28/02:00am 21.5 20.8 17.3 77 2.6 SE 17 26 9 14 1017.1 - 0.0
28/01:30am 21.8 20.6 17.4 76 2.7 SE 20 35 11 19 1017.3 - 0.0
28/01:00am 21.8 21.2 17.6 77 2.6 SE 17 30 9 16 1017.6 - 0.0
28/12:30am 21.7 20.8 17.8 78 2.4 SE 19 26 10 14 1017.7 - 0.0
28/12:00am 22.1 20.9 17.6 75 2.8 SE 20 35 11 19 1017.9 1017.9 0.0
 
Date/Time
EST
Temp
°C
App
Temp
°C
Dew
Point
°C
Rel
Hum
%
Delta-T
°C
Wind Press
QNH
hPa
Press
MSL
hPa
Rain since
9am
mm
Dir  Spd
km/h
Gust
km/h
Spd
kts
Gust
kts
27/11:30pm 21.9 20.6 17.3 75 2.8 SE 20 33 11 18 1018.1 - 0.0
27/11:00pm 21.8 20.0 16.9 73 3.0 SE 22 33 12 18 1018.4 - 0.0
27/10:30pm 21.7 20.2 16.8 73 3.0 SE 20 30 11 16 1018.5 - 0.0
27/10:00pm 21.9 20.3 16.6 72 3.2 SE 20 33 11 18 1018.5 - 0.0
27/09:30pm 21.7 20.1 16.4 72 3.2 SE 20 35 11 19 1018.5 - 0.0
27/09:00pm 21.8 19.7 16.3 71 3.3 SE 22 35 12 19 1018.5 1018.6 0.0
27/08:30pm 21.9 20.1 16.1 69 3.5 SE 20 37 11 20 1018.5 - 0.0
27/08:00pm 21.6 20.0 16.1 71 3.3 SE 19 30 10 16 1018.2 - 0.0
27/07:30pm 21.6 20.0 15.9 70 3.4 SE 19 32 10 17 1018.0 - 0.0
27/07:00pm 21.7 19.4 15.7 68 3.6 SE 22 33 12 18 1017.6 - 0.0
27/06:30pm 21.7 19.1 15.9 69 3.5 SE 24 41 13 22 1017.4 - 0.0
27/06:00pm 21.8 19.5 15.8 68 3.6 SE 22 35 12 19 1017.3 1017.3 0.0
27/05:30pm 22.3 20.5 16.0 67 3.8 ESE 20 32 11 17 1017.2 - 0.0
27/05:00pm 22.6 20.0 15.8 65 4.1 ESE 24 35 13 19 1017.1 - 0.0
27/04:30pm 22.7 20.4 15.7 64 4.2 SE 22 41 12 22 1016.7 - 0.0
27/04:00pm 23.0 19.9 15.7 63 4.4 SE 26 37 14 20 1016.2 - 0.0
27/03:30pm 23.5 20.9 15.9 62 4.6 SE 24 39 13 21 1016.1 - 0.0
27/03:00pm 24.4 21.7 15.6 58 5.3 SE 24 41 13 22 1016.0 1016.0 0.0
27/02:30pm 24.7 20.8 15.4 56 5.6 ESE 30 44 16 24 1016.1 - 0.0
27/02:16pm 24.5 20.9 15.2 56 5.6 ESE 28 46 15 25 1016.1 - 0.0
27/02:00pm 25.5 22.4 15.6 54 6.0 SE 26 52 14 28 1016.2 - 0.0
27/01:31pm 24.7 20.5 14.6 53 6.0 SE 30 50 16 27 1016.5 - 0.0
27/01:30pm 25.0 20.9 15.0 53 6.0 SE 30 44 16 24 1016.6 - 0.0
27/01:13pm 24.9 20.6 14.4 52 6.2 SE 30 48 16 26 1016.7 - 0.0
27/01:00pm 24.9 20.7 14.7 53 6.1 SE 30 41 16 22 1016.9 - 0.0
27/12:30pm 25.4 21.3 14.9 52 6.3 SE 30 46 16 25 1017.3 - 0.0
27/12:22pm 24.8 20.8 14.1 51 6.3 ESE 28 46 15 25 1017.4 - 0.0
27/12:00pm 25.2 21.7 14.6 51 6.3 SE 26 43 14 23 1017.7 1017.6 0.0
27/11:36am 24.6 20.5 13.9 51 6.3 SE 28 50 15 27 1017.8 - 0.0
27/11:30am 24.4 20.4 14.0 52 6.1 SE 28 39 15 21 1017.8 - 0.0
27/11:00am 24.8 20.9 14.5 52 6.1 SE 28 39 15 21 1018.3 - 0.0
27/10:30am 24.3 20.7 14.1 53 6.0 SE 26 39 14 21 1018.6 - 0.0
27/10:00am 23.5 20.3 14.3 56 5.4 SE 24 37 13 20 1018.7 - 0.0
27/09:30am 23.8 20.3 14.5 56 5.5 SE 26 44 14 24 1018.8 - 0.0
27/09:00am 23.6 19.8 14.8 57 5.2 ESE 28 44 15 24 1018.5 1018.5 0.0
27/08:30am 23.5 20.9 14.9 58 5.1 SE 22 35 12 19 1018.3 - 0.0
27/08:00am 23.3 21.2 15.3 60 4.8 SE 20 37 11 20 1018.0 - 0.0
27/07:30am 22.8 20.5 14.7 60 4.8 SE 20 33 11 18 1017.6 - 0.0
27/07:00am 22.4 20.6 15.4 64 4.2 SE 19 30 10 16 1017.2 - 0.0
27/06:30am 22.3 20.1 15.0 63 4.3 SE 20 33 11 18 1016.9 - 0.0
27/06:00am 22.5 20.3 14.9 62 4.5 SE 20 32 11 17 1016.5 1016.5 0.0
27/05:30am 22.7 20.3 15.3 63 4.4 SE 22 41 12 22 1016.2 - 0.0
27/05:00am 22.9 21.3 15.9 64 4.2 SE 19 30 10 16 1015.8 - 0.0
27/04:30am 22.3 22.3 17.3 73 3.1 SE 13 20 7 11 1015.7 - 0.0
27/04:00am 22.4 22.5 17.4 73 3.1 SE 13 20 7 11 1015.6 - 0.0
27/03:30am 22.5 22.7 17.7 74 3.0 SE 13 20 7 11 1015.7 - 0.0
27/03:00am 22.6 22.5 17.9 75 2.9 SE 15 22 8 12 1015.4 1015.4 0.0
27/02:30am 22.9 23.5 18.6 77 2.7 SE 13 20 7 11 1015.6 - 0.0
27/02:00am 23.2 24.1 19.3 79 2.5 SE 13 24 7 13 1015.6 - 0.0
27/01:30am 23.3 23.7 19.0 77 2.7 SE 15 26 8 14 1015.6 - 0.0
27/01:00am 23.3 23.9 19.4 79 2.5 SE 15 22 8 12 1016.0 - 0.0
27/12:30am 23.4 24.3 19.3 78 2.6 ESE 13 22 7 12 1016.3 - 0.0
27/12:00am 23.6 24.3 19.7 79 2.5 ESE 15 26 8 14 1016.2 1016.2 0.0
 
Date/Time
EST
Temp
°C
App
Temp
°C
Dew
Point
°C
Rel
Hum
%
Delta-T
°C
Wind Press
QNH
hPa
Press
MSL
hPa
Rain since
9am
mm
Dir  Spd
km/h
Gust
km/h
Spd
kts
Gust
kts
26/11:35pm 23.7 24.1 19.8 79 2.5 SE 17 26 9 14 1016.1 - 0.0
26/11:30pm 23.8 24.6 19.9 79 2.5 SE 15 26 8 14 1016.1 - 0.0
26/11:15pm 23.8 24.7 20.1 80 2.4 SE 15 24 8 13 1016.1 - 0.0
26/11:00pm 23.9 24.4 20.0 79 2.5 SE 17 24 9 13 1016.0 - 0.0
26/10:30pm 23.9 24.6 20.4 81 2.3 ESE 17 24 9 13 1015.9 - 0.0
26/10:00pm 24.0 24.3 20.5 81 2.3 ESE 19 28 10 15 1015.7 - 0.0
26/09:41pm 23.9 25.0 20.4 81 2.3 ESE 15 24 8 13 1015.7 - 0.0
26/09:30pm 23.9 24.6 20.5 81 2.2 ESE 17 28 9 15 1015.6 - 0.0
26/09:24pm 23.9 24.2 20.4 81 2.3 ESE 19 28 10 15 1015.6 - 0.0
26/09:00pm 23.8 24.6 20.7 83 2.0 ESE 17 20 9 11 1015.4 1015.4 0.0
26/08:30pm 24.0 24.5 20.8 82 2.1 ESE 19 28 10 15 1015.3 - 0.0
26/08:00pm 24.1 24.6 20.9 82 2.1 ESE 19 30 10 16 1014.9 - 0.0
26/07:55pm 24.0 25.0 21.1 84 1.9 ESE 17 26 9 14 1014.8 - 0.0
26/07:30pm 24.0 25.0 21.1 84 1.9 ESE 17 26 9 14 1014.4 - 0.0
26/07:00pm 23.9 25.7 21.2 85 1.8 ESE 13 20 7 11 1013.8 - 0.0
26/06:30pm 23.9 25.0 21.3 85 1.7 ESE 17 32 9 17 1013.3 - 0.0
26/06:00pm 24.3 24.9 21.3 83 2.0 ESE 20 28 11 15 1012.8 1012.8 0.0
26/05:30pm 24.9 24.8 21.4 81 2.3 ESE 24 32 13 17 1012.5 - 0.0
26/05:23pm 25.0 25.7 21.5 81 2.3 ESE 20 30 11 16 1012.5 - 0.0
26/05:03pm 26.0 26.4 21.0 74 3.3 ESE 20 30 11 16 1012.1 - 0.0

Other Formats:

Comma delimited format used in spreadsheet applications
http://www.bom.gov.au/fwo/IDQ60801/IDQ60801.95283.axf

JavaScript Object Notation format (JSON) in row-major order
http://www.bom.gov.au/fwo/IDQ60801/IDQ60801.95283.json